Flight Track Log - Related Links

Times and Time Zones

All times are in EDT time to prevent confusion due to time zone crossing. See the SKW6440 flight status page for this flight to view local times or setup timezone preferences in your user account.

Time Position Orientation Groundspeed Altitude Reporting Facility
EDT Latitude Longitude Course Direction KTS MPH feet Rate Location/Type
Wed 06:48:20 PM 33.9333 -118.4500 55° Northeast 171 197 1,600  Level Southern California TRACON
Wed 06:49:29 PM 33.9086 -118.5178 246° West 212 244 4,200 1,878 Climbing Los Angeles Center
Wed 06:50:00 PM 34.1326 -118.0680 59° Northeast  Level FlightAware Approximate
Wed 06:50:31 PM 33.8731 -118.5950 241° Southwest 245 282 5,700  Level Los Angeles Center
Wed 06:51:00 PM 34.2020 -117.9294 59° Northeast  Level FlightAware Approximate
Wed 06:51:33 PM 33.8319 -118.5619 146° Southeast 249 287 7,900  Level Los Angeles Center
Wed 06:52:00 PM 34.2761 -117.8072 40° Northeast  Level FlightAware Approximate
Wed 06:52:35 PM 33.8900 -118.4828 49° Northeast 287 330 10,900  Level Los Angeles Center
Wed 06:53:00 PM 34.3464 -117.6729 55° Northeast  Level FlightAware Approximate
Wed 06:53:37 PM 33.9431 -118.4189 45° Northeast 300 345 12,700  Level Los Angeles Center
Wed 06:54:39 PM 33.9925 -118.3278 57° Northeast 321 369 15,100 2,565 Climbing Los Angeles Center
Wed 06:55:41 PM 34.0564 -118.2156 55° Northeast 336 387 18,000 2,129 Climbing Los Angeles Center
Wed 06:56:43 PM 34.1003 -118.1383 56° Northeast 343 395 19,500 1,728 Climbing Los Angeles Center
Wed 06:57:46 PM 34.1683 -118.0178 56° Northeast 359 413 21,600 1,776 Climbing Los Angeles Center
Wed 06:58:48 PM 34.2275 -117.9122 56° Northeast 376 433 23,200 1,548 Climbing Los Angeles Center
Wed 06:59:50 PM 34.2900 -117.8036 55° Northeast 391 450 24,800 1,500 Climbing Los Angeles Center
Wed 07:00:52 PM 34.3614 -117.7031 49° Northeast 393 452 26,300 1,452 Climbing Los Angeles Center
Wed 07:01:54 PM 34.4394 -117.5925 49° Northeast 405 466 27,800 1,355 Climbing Los Angeles Center
Wed 07:02:56 PM 34.5122 -117.4861 50° Northeast 412 474 29,100 1,452 Climbing Los Angeles Center
Wed 07:03:58 PM 34.6003 -117.3597 50° Northeast 413 475 30,800 1,306 Climbing Los Angeles Center
Wed 07:05:00 PM 34.6731 -117.2528 50° Northeast 414 476 31,800 774 Climbing Los Angeles Center
Wed 07:06:02 PM 34.7481 -117.1453 50° Northeast 418 481 32,400 624 Climbing Los Angeles Center
Wed 07:07:05 PM 34.8256 -117.0325 50° Northeast 435 501 33,100 672 Climbing Los Angeles Center
Wed 07:08:07 PM 34.9033 -116.9189 50° Northeast 440 506 33,800 823 Climbing Los Angeles Center
Wed 07:09:09 PM 34.9983 -116.7794 50° Northeast 448 516 34,800 968 Climbing Los Angeles Center
Wed 07:10:11 PM 35.0769 -116.6631 50° Northeast 448 516 35,800 823 Climbing Los Angeles Center
Wed 07:11:13 PM 35.1561 -116.5489 50° Northeast 444 511 36,500 677 Climbing Los Angeles Center
Wed 07:12:15 PM 35.2339 -116.4331 51° Northeast 442 509 37,200 484 Climbing Los Angeles Center
Wed 07:13:17 PM 35.3136 -116.3144 51° Northeast 450 518 37,500 336 Climbing Los Angeles Center
Wed 07:14:20 PM 35.4097 -116.1694 51° Northeast 457 526 37,900 480 Climbing Los Angeles Center
Wed 07:15:22 PM 35.4919 -116.0494 50° Northeast 460 529 38,500 435 Climbing Los Angeles Center
Wed 07:16:24 PM 35.5733 -115.9264 51° Northeast 464 534 38,800 242 Climbing Los Angeles Center
Wed 07:17:26 PM 35.6531 -115.8078 50° Northeast 464 534 39,000 97 Climbing Los Angeles Center
Wed 07:18:28 PM 35.7533 -115.6578 50° Northeast 472 543 39,000  Level Los Angeles Center
Wed 07:19:30 PM 35.8364 -115.5322 51° Northeast 475 547 39,000  Level Los Angeles Center
Wed 07:20:32 PM 35.9192 -115.4061 51° Northeast 476 548 39,000  Level Los Angeles Center
Wed 07:21:34 PM 36.0019 -115.2803 51° Northeast 475 547 39,000  Level Los Angeles Center
Wed 07:22:36 PM 36.0758 -115.1433 56° Northeast 486 559 39,000  Level Los Angeles Center
Wed 07:23:39 PM 36.1164 -114.9531 75° East 482 555 39,000  Level Los Angeles Center
Wed 07:24:41 PM 36.1450 -114.7919 78° East 482 555 39,000  Level Los Angeles Center
Wed 07:25:43 PM 36.1725 -114.6292 78° East 484 557 39,000  Level Los Angeles Center
Wed 07:26:45 PM 36.2006 -114.4658 78° East 486 559 39,000  Level Los Angeles Center
Wed 07:27:47 PM 36.2281 -114.3022 78° East 487 560 39,000  Level Los Angeles Center
Wed 07:28:49 PM 36.2614 -114.1044 78° East 489 563 39,000  Level Los Angeles Center
Wed 07:29:51 PM 36.2897 -113.9383 78° East 491 565 39,000  Level Los Angeles Center
Wed 07:30:53 PM 36.3169 -113.7722 78° East 493 567 39,000  Level Los Angeles Center
Wed 07:31:55 PM 36.3447 -113.6053 78° East 494 568 39,000  Level Los Angeles Center
Wed 07:32:58 PM 36.3722 -113.4375 78° East 497 572 39,000  Level Los Angeles Center
Wed 07:33:59 PM 36.3947 -113.3017 78° East 501 577 39,000  Level Los Angeles Center
Wed 07:35:02 PM 36.4317 -113.0689 79° East 501 577 39,000  Level Los Angeles Center
Wed 07:36:04 PM 36.4589 -112.8981 79° East 505 581 39,000  Level Los Angeles Center
Wed 07:37:06 PM 36.4853 -112.7267 79° East 507 583 39,000  Level Los Angeles Center
Wed 07:38:08 PM 36.5119 -112.5547 79° East 509 586 39,000  Level Los Angeles Center
Wed 07:39:10 PM 36.5389 -112.3817 79° East 512 589 39,000  Level Los Angeles Center
Wed 07:40:12 PM 36.5706 -112.1739 79° East 513 590 39,000 -192 Level Los Angeles Center
Wed 07:41:15 PM 36.5958 -111.9994 80° East 514 592 38,600 -672 Descending Los Angeles Center
Wed 07:42:17 PM 36.6219 -111.8250 79° East 515 593 37,600 -960 Descending Los Angeles Center
Wed 07:42:55 PM 36.6364 -111.7211 80° East 515 593 37,000 -360 Descending Denver Center
Wed 07:43:57 PM 36.6619 -111.5503 79° East 509 586 37,000  Level Denver Center
Wed 07:44:59 PM 36.6919 -111.3453 80° East 505 581 37,000  Level Denver Center
Wed 07:46:01 PM 36.7169 -111.1711 80° East 510 587 37,000  Level Denver Center
Wed 07:47:03 PM 36.7408 -110.9953 80° East 515 593 37,000  Level Denver Center
Wed 07:48:05 PM 36.7653 -110.8178 80° East 520 598 37,000  Level Denver Center
Wed 07:49:07 PM 36.7908 -110.6422 80° East 516 594 37,000 -145 Level Denver Center
Wed 07:50:09 PM 36.8139 -110.4669 81° East 515 593 36,700 -726 Descending Denver Center
Wed 07:51:11 PM 36.8414 -110.2581 81° East 511 588 35,500 -823 Descending Denver Center
Wed 07:52:13 PM 36.8636 -110.0944 80° East 512 589 35,000 -242 Descending Denver Center
Wed 07:53:15 PM 36.8894 -109.8986 81° East 511 588 35,000  Level Denver Center
Wed 07:54:17 PM 36.9122 -109.7269 81° East 520 598 35,000  Level Denver Center
Wed 07:55:32 PM 36.9428 -109.5025 80° East 512 589 35,000  Level Denver Center
Wed 07:56:34 PM 36.9917 -109.3419 69° East 513 590 35,000  Level Denver Center
Wed 07:57:36 PM 37.0489 -109.1536 69° East 516 594 35,000  Level Denver Center
Wed 07:58:38 PM 37.0986 -108.9933 69° East 515 593 35,000  Level Denver Center
Wed 07:59:42 PM 37.1558 -108.8019 69° East 521 600 35,000  Level Denver Center
Wed 08:00:44 PM 37.2047 -108.6389 69° East 521 600 35,000  Level Denver Center
Wed 08:01:46 PM 37.2608 -108.4489 70° East 520 598 35,000  Level Denver Center
Wed 08:02:48 PM 37.3092 -108.2875 69° East 514 592 35,000  Level Denver Center
Wed 08:03:50 PM 37.3650 -108.0967 70° East 520 598 35,000  Level Denver Center
Wed 08:04:52 PM 37.4119 -107.9317 70° East 521 600 35,000  Level Denver Center
Wed 08:05:54 PM 37.4678 -107.7414 70° East 519 597 35,000  Level Denver Center
Wed 08:06:57 PM 37.5136 -107.5797 70° East 514 592 35,000  Level Denver Center
Wed 08:07:59 PM 37.5683 -107.3892 70° East 516 594 35,000  Level Denver Center
Wed 08:09:01 PM 37.6144 -107.2267 70° East 516 594 35,000 -48 Level Denver Center
Wed 08:10:03 PM 37.6686 -107.0358 70° East 516 594 34,900 -1,161 Descending Denver Center
Wed 08:11:05 PM 37.7139 -106.8747 70° East 511 588 32,600 -2,274 Descending Denver Center
Wed 08:12:07 PM 37.7597 -106.7067 71° East 523 602 30,200 -2,516 Descending Denver Center
Wed 08:13:09 PM 37.8122 -106.5189 70° East 510 587 27,400 -1,548 Descending Denver Center
Wed 08:14:11 PM 37.8575 -106.3539 71° East 517 595 27,000 -484 Descending Denver Center
Wed 08:15:13 PM 37.9108 -106.1569 71° East 524 603 26,400 -774 Descending Denver Center
Wed 08:16:15 PM 37.9586 -105.9803 71° East 525 604 25,400 -968 Descending Denver Center
Wed 08:17:17 PM 38.0044 -105.8106 71° East 508 585 24,400 -1,016 Descending Denver Center
Wed 08:18:19 PM 38.0478 -105.6464 71° East 495 570 23,300 -677 Descending Denver Center
Wed 08:19:21 PM 38.0911 -105.4842 71° East 486 559 23,000 -145 Descending Denver Center
Wed 08:20:23 PM 38.1417 -105.2939 71° East 485 558 23,000 -726 Level Denver Center
Wed 08:21:25 PM 38.1844 -105.1294 72° East 486 559 21,500 -2,081 Descending Denver Center
Wed 08:22:27 PM 38.2256 -104.9689 72° East 483 556 18,700 -2,516 Descending Denver Center
Wed 08:23:29 PM 38.2642 -104.8183 72° East 468 539 16,300 -2,129 Descending Denver Center
Wed 08:24:31 PM 38.3061 -104.6906 67° East 436 502 14,300 -1,113 Descending Denver Center
Wed 08:25:33 PM 38.4006 -104.6547 17° North 377 434 14,000 -435 Descending Denver Center
Wed 08:26:35 PM 38.4953 -104.6300 12° North 353 406 13,400 -871 Descending Denver Center
Wed 08:27:37 PM 38.6081 -104.6039 10° North 349 402 12,200 -1,161 Descending Denver Center
Wed 08:28:39 PM 38.7053 -104.5975 North 349 402 11,000 -968 Descending Denver Center
Wed 08:29:41 PM 38.7894 -104.6042 356° North 319 367 10,200 -629 Descending Denver Center
Wed 08:30:43 PM 38.8606 -104.6064 359° North 276 318 9,700 -726 Descending Denver Center
Wed 08:31:45 PM 38.8992 -104.6367 329° Northwest 215 247 8,700 -968 Descending Denver Center
Wed 08:33:00 PM 38.8230 -104.6885 201° Southwest  Level FlightAware Approximate
Wed 08:40:00 PM 38.8000 -104.7000 201° Southwest  Level FlightAware Approximate
Wed 08:41:00 PM 38.8058 -104.7008 201° Southwest  Level Estimated

Login

Don't have an account? Register now (free) for customized features, flight alerts, and more!